Time;durP1;ratioP1;P1;durP2;ratioP2;P2;SDS_P1;SDS_P2;PMS_P1;PMS_P2;Temp;Humidity;BMP_temperature;BMP_pressure;BME280_temperature;BME280_humidity;BME280_pressure;Samples;Min_cycle;Max_cycle;Signal;HPM_P1;HPM_P2
2022/04/17 00:01:30;;;;;;;;;;;21.00;22.20;;;;;;5146637;27;19948;-61
2022/04/17 00:03:55;;;;;;;;;;;21.20;22.10;;;;;;5141266;27;20055;-60
2022/04/17 00:06:21;;;;;;;;;;;20.90;22.40;;;;;;5136508;27;20332;-59
2022/04/17 00:08:47;;;;;;;;;;;21.20;22.20;;;;;;5148165;27;19946;-57
2022/04/17 00:11:13;;;;;;;;;;;20.90;22.60;;;;;;5144810;27;19930;-61
2022/04/17 00:13:38;;;;;;;;;;;21.10;22.40;;;;;;5145628;27;19984;-59
2022/04/17 00:16:04;;;;;;;;;;;20.90;22.60;;;;;;5149214;27;19927;-61
2022/04/17 00:18:30;;;;;;;;;;;21.10;22.50;;;;;;5144449;27;19962;-59
2022/04/17 00:20:56;;;;;;;;;;;20.90;22.60;;;;;;5149907;27;19926;-60
2022/04/17 00:23:22;;;;;;;;;;;21.10;22.50;;;;;;5142570;27;20414;-59
2022/04/17 00:25:48;;;;;;;;;;;20.90;22.60;;;;;;5140926;27;19930;-61
2022/04/17 00:28:13;;;;;;;;;;;21.10;22.50;;;;;;5131519;27;19923;-59
2022/04/17 00:30:39;;;;;;;;;;;20.90;22.70;;;;;;5144207;27;20363;-55
2022/04/17 00:33:05;;;;;;;;;;;21.20;22.50;;;;;;5144110;27;20363;-59
2022/04/17 00:35:31;;;;;;;;;;;21.00;22.90;;;;;;5149683;27;20244;-57
2022/04/17 00:37:56;;;;;;;;;;;21.20;22.70;;;;;;5144124;27;19953;-59
2022/04/17 00:40:22;;;;;;;;;;;20.90;23.10;;;;;;5149706;27;19927;-53
2022/04/17 00:42:48;;;;;;;;;;;21.20;22.90;;;;;;5140429;27;20385;-60
2022/04/17 00:45:14;;;;;;;;;;;20.90;23.20;;;;;;5142355;27;20286;-52
2022/04/17 00:47:40;;;;;;;;;;;21.20;22.90;;;;;;5149562;27;19923;-60
2022/04/17 00:50:07;;;;;;;;;;;20.90;23.10;;;;;;5143941;27;19936;-57
2022/04/17 00:52:33;;;;;;;;;;;21.10;23.00;;;;;;5143815;27;20086;-57
2022/04/17 00:54:59;;;;;;;;;;;20.90;23.30;;;;;;5149383;27;19975;-55
2022/04/17 00:57:25;;;;;;;;;;;21.20;22.90;;;;;;5143734;27;19933;-59
2022/04/17 00:59:52;;;;;;;;;;;21.10;23.00;;;;;;5128675;27;19971;-58
2022/04/17 01:02:17;;;;;;;;;;;21.20;22.90;;;;;;5119166;27;19927;-60
2022/04/17 01:04:43;;;;;;;;;;;20.90;23.30;;;;;;5143436;27;20394;-58
2022/04/17 01:07:12;;;;;;;;;;;21.10;23.10;;;;;;5149228;27;19923;-59
2022/04/17 01:09:38;;;;;;;;;;;21.00;23.00;;;;;;5143468;27;19928;-56
2022/04/17 01:12:08;;;;;;;;;;;21.20;22.80;;;;;;5125155;27;19935;-61
2022/04/17 01:14:36;;;;;;;;;;;21.00;23.00;;;;;;5149013;27;20374;-58
2022/04/17 01:17:02;;;;;;;;;;;21.10;22.80;;;;;;5143539;27;20343;-58
2022/04/17 01:19:32;;;;;;;;;;;21.10;22.80;;;;;;5140311;27;19923;-56
2022/04/17 01:21:57;;;;;;;;;;;20.80;23.00;;;;;;5147183;27;19923;-59
2022/04/17 01:27:08;;;;;;;;;;;21.10;22.70;;;;;;5146084;27;19929;-55
2022/04/17 01:29:37;;;;;;;;;;;21.20;22.70;;;;;;5127974;27;19930;-57
2022/04/17 01:32:04;;;;;;;;;;;21.00;22.80;;;;;;5143106;27;19923;-52
2022/04/17 01:34:30;;;;;;;;;;;21.10;22.70;;;;;;5148760;27;19923;-56
2022/04/17 01:36:56;;;;;;;;;;;21.00;22.90;;;;;;5141505;27;19927;-55
2022/04/17 01:39:21;;;;;;;;;;;21.20;22.70;;;;;;5121378;27;19930;-61
2022/04/17 01:41:48;;;;;;;;;;;20.90;22.90;;;;;;5148611;27;19923;-56
2022/04/17 01:44:16;;;;;;;;;;;21.10;22.60;;;;;;5143491;27;19933;-58
2022/04/17 01:46:42;;;;;;;;;;;21.00;22.80;;;;;;5143307;27;19945;-58
2022/04/17 01:49:08;;;;;;;;;;;21.20;22.70;;;;;;5148781;27;20345;-61
2022/04/17 01:51:39;;;;;;;;;;;20.90;23.10;;;;;;5143180;27;19930;-60
2022/04/17 01:54:06;;;;;;;;;;;21.20;22.80;;;;;;5148703;27;19927;-54
2022/04/17 01:56:32;;;;;;;;;;;21.00;22.80;;;;;;5120257;27;19923;-58
2022/04/17 01:58:58;;;;;;;;;;;21.00;22.90;;;;;;5141845;27;19923;-60
2022/04/17 02:01:23;;;;;;;;;;;21.30;22.70;;;;;;5148337;27;19974;-60
2022/04/17 02:03:49;;;;;;;;;;;21.10;22.90;;;;;;5142764;27;19926;-58
2022/04/17 02:06:15;;;;;;;;;;;21.10;22.80;;;;;;5142868;27;20303;-56
2022/04/17 02:08:44;;;;;;;;;;;21.00;22.90;;;;;;5148155;27;20013;-55
2022/04/17 02:11:10;;;;;;;;;;;21.10;22.80;;;;;;5143439;27;19930;-58
2022/04/17 02:13:36;;;;;;;;;;;20.90;23.00;;;;;;5143682;27;19930;-57
2022/04/17 02:16:02;;;;;;;;;;;21.00;22.90;;;;;;5142519;27;19928;-56
2022/04/17 02:18:28;;;;;;;;;;;21.00;23.00;;;;;;5142185;27;20081;-61
2022/04/17 02:20:54;;;;;;;;;;;21.20;22.80;;;;;;5148011;27;19948;-60
2022/04/17 02:23:20;;;;;;;;;;;20.90;23.10;;;;;;5123941;27;20783;-54
2022/04/17 02:25:46;;;;;;;;;;;21.10;22.80;;;;;;5142802;27;19976;-58
2022/04/17 02:28:13;;;;;;;;;;;20.90;23.00;;;;;;5147895;27;19937;-61
2022/04/17 02:30:38;;;;;;;;;;;21.20;22.80;;;;;;5141581;27;19945;-57
2022/04/17 02:33:04;;;;;;;;;;;21.00;23.00;;;;;;5119785;27;19966;-59
2022/04/17 02:35:30;;;;;;;;;;;21.20;22.80;;;;;;5146257;27;19927;-60
2022/04/17 02:37:56;;;;;;;;;;;21.10;22.90;;;;;;5142120;27;20055;-59
2022/04/17 02:40:22;;;;;;;;;;;21.10;22.90;;;;;;5147520;27;19988;-59
2022/04/17 02:42:53;;;;;;;;;;;21.00;23.10;;;;;;5142080;27;19923;-56
2022/04/17 02:45:21;;;;;;;;;;;21.00;23.00;;;;;;5142174;27;19923;-62
2022/04/17 02:47:50;;;;;;;;;;;20.90;23.20;;;;;;5129073;27;19930;-58
2022/04/17 02:50:19;;;;;;;;;;;21.10;23.00;;;;;;5141054;27;19927;-57
2022/04/17 02:52:45;;;;;;;;;;;20.90;23.20;;;;;;5138338;27;19937;-57
2022/04/17 02:55:11;;;;;;;;;;;21.20;22.90;;;;;;5147431;27;20336;-59
2022/04/17 02:57:37;;;;;;;;;;;21.00;23.10;;;;;;5141784;27;19979;-53
2022/04/17 03:00:03;;;;;;;;;;;21.20;23.00;;;;;;5125760;27;20365;-59
2022/04/17 03:07:58;;;;;;;;;;;21.00;23.10;;;;;;5141936;27;20486;-55
2022/04/17 03:10:24;;;;;;;;;;;21.00;22.90;;;;;;5141972;27;20398;-61
2022/04/17 03:12:50;;;;;;;;;;;21.20;22.80;;;;;;5104552;27;20001;-51
2022/04/17 03:15:16;;;;;;;;;;;21.00;22.90;;;;;;5147125;27;19976;-62
2022/04/17 03:17:42;;;;;;;;;;;21.10;22.90;;;;;;5141722;27;20445;-57
2022/04/17 03:20:08;;;;;;;;;;;20.90;23.00;;;;;;5141437;27;19934;-59
2022/04/17 03:22:33;;;;;;;;;;;21.00;23.00;;;;;;5147017;27;20018;-50
2022/04/17 03:25:00;;;;;;;;;;;21.20;22.90;;;;;;5142295;27;19933;-55
2022/04/17 03:27:26;;;;;;;;;;;21.00;23.00;;;;;;5138949;27;19934;-56
2022/04/17 03:29:52;;;;;;;;;;;21.10;22.90;;;;;;5144270;27;19923;-59
2022/04/17 03:32:18;;;;;;;;;;;21.10;22.90;;;;;;5141389;27;19930;-58
2022/04/17 03:34:44;;;;;;;;;;;21.20;22.80;;;;;;5147018;27;20286;-58
2022/04/17 03:37:10;;;;;;;;;;;21.10;22.90;;;;;;5141857;27;19923;-60
2022/04/17 03:39:36;;;;;;;;;;;21.00;23.00;;;;;;5141632;27;19924;-52
2022/04/17 03:42:02;;;;;;;;;;;21.20;22.80;;;;;;5147084;27;20018;-59
2022/04/17 03:44:28;;;;;;;;;;;20.90;23.00;;;;;;5144925;27;20007;-56
2022/04/17 03:46:54;;;;;;;;;;;21.30;22.70;;;;;;5140662;27;20095;-59
2022/04/17 03:49:19;;;;;;;;;;;21.00;22.90;;;;;;5150262;27;19923;-59
2022/04/17 03:51:45;;;;;;;;;;;21.10;22.90;;;;;;5145253;27;19923;-57
2022/04/17 03:54:11;;;;;;;;;;;21.00;22.90;;;;;;5130470;27;19930;-54
2022/04/17 03:56:37;;;;;;;;;;;21.10;22.80;;;;;;5147383;27;20335;-57
2022/04/17 03:59:02;;;;;;;;;;;21.10;22.80;;;;;;5145109;27;19929;-60
2022/04/17 04:01:28;;;;;;;;;;;20.90;23.00;;;;;;5150198;27;19931;-61
2022/04/17 04:03:54;;;;;;;;;;;21.10;22.80;;;;;;5142899;27;19922;-57
2022/04/17 04:06:21;;;;;;;;;;;21.00;22.90;;;;;;5141257;27;19934;-55
2022/04/17 04:08:48;;;;;;;;;;;21.10;22.90;;;;;;5150064;27;19984;-61
2022/04/17 04:11:14;;;;;;;;;;;21.00;23.00;;;;;;5144730;27;20391;-57
2022/04/17 04:13:42;;;;;;;;;;;21.10;22.90;;;;;;5144885;27;20301;-57
2022/04/17 04:16:08;;;;;;;;;;;21.00;23.00;;;;;;5150416;27;20021;-61
2022/04/17 04:18:34;;;;;;;;;;;20.90;23.10;;;;;;5144454;27;20400;-61
2022/04/17 04:21:00;;;;;;;;;;;21.20;22.80;;;;;;5150010;27;19933;-57
2022/04/17 04:23:26;;;;;;;;;;;21.10;22.90;;;;;;5140177;27;20341;-60
2022/04/17 04:25:52;;;;;;;;;;;21.20;22.80;;;;;;5143774;27;20440;-57
2022/04/17 04:28:33;;;;;;;;;;;20.80;23.10;;;;;;5149850;27;19935;-54
2022/04/17 04:31:05;;;;;;;;;;;21.00;22.90;;;;;;5144768;27;20014;-58
2022/04/17 04:33:32;;;;;;;;;;;20.90;23.00;;;;;;5144314;27;19923;-60
2022/04/17 04:35:59;;;;;;;;;;;21.10;22.80;;;;;;5149839;27;20018;-57
2022/04/17 04:38:25;;;;;;;;;;;21.00;22.90;;;;;;5144281;27;19925;-58
2022/04/17 04:40:51;;;;;;;;;;;21.20;22.70;;;;;;5141732;27;19937;-57
2022/04/17 04:43:17;;;;;;;;;;;21.10;22.80;;;;;;5146671;27;19931;-56
2022/04/17 04:51:13;;;;;;;;;;;21.00;22.70;;;;;;5149536;27;19922;-60
2022/04/17 04:53:39;;;;;;;;;;;21.10;22.70;;;;;;5143528;27;19968;-60
2022/04/17 04:56:05;;;;;;;;;;;21.20;22.70;;;;;;5148340;27;19937;-58
2022/04/17 04:58:31;;;;;;;;;;;21.00;22.70;;;;;;5145070;27;19927;-57
2022/04/17 05:00:57;;;;;;;;;;;21.20;22.60;;;;;;5138831;27;19924;-60
2022/04/17 05:03:22;;;;;;;;;;;20.90;22.90;;;;;;5148926;27;20013;-57
2022/04/17 05:05:48;;;;;;;;;;;21.10;22.70;;;;;;5144380;27;19923;-59
2022/04/17 05:08:14;;;;;;;;;;;20.90;22.90;;;;;;5144042;27;19923;-59
2022/04/17 05:10:40;;;;;;;;;;;21.20;22.70;;;;;;5149313;27;19923;-58
2022/04/17 05:13:05;;;;;;;;;;;20.80;23.10;;;;;;5143845;27;20328;-54
2022/04/17 05:15:31;;;;;;;;;;;21.10;22.70;;;;;;5146064;27;20169;-59
2022/04/17 05:17:57;;;;;;;;;;;21.00;22.90;;;;;;5143398;27;20280;-59
2022/04/17 05:20:23;;;;;;;;;;;21.20;22.80;;;;;;5141684;27;19931;-53
2022/04/17 05:22:56;;;;;;;;;;;21.20;22.80;;;;;;5149019;27;19930;-58
2022/04/17 05:25:22;;;;;;;;;;;21.10;22.90;;;;;;5143722;27;19934;-59
2022/04/17 05:27:48;;;;;;;;;;;20.90;23.00;;;;;;5143594;27;19927;-59
2022/04/17 05:30:13;;;;;;;;;;;21.00;23.00;;;;;;5148933;27;20017;-60
2022/04/17 05:32:39;;;;;;;;;;;21.20;22.80;;;;;;5143387;27;20385;-61
2022/04/17 05:35:05;;;;;;;;;;;21.10;22.90;;;;;;5143240;27;20224;-59
2022/04/17 05:37:31;;;;;;;;;;;21.10;22.90;;;;;;5123190;27;19936;-57
2022/04/17 05:39:57;;;;;;;;;;;21.10;22.90;;;;;;5142660;27;20259;-59
2022/04/17 05:42:22;;;;;;;;;;;21.00;23.00;;;;;;5148481;27;19976;-58
2022/04/17 05:44:49;;;;;;;;;;;21.20;22.90;;;;;;5143265;27;19923;-61
2022/04/17 05:47:15;;;;;;;;;;;20.90;23.10;;;;;;5122630;27;19965;-57
2022/04/17 05:49:41;;;;;;;;;;;21.20;22.90;;;;;;5148427;27;19927;-58
2022/04/17 05:52:06;;;;;;;;;;;20.80;23.10;;;;;;5142968;27;19935;-54
2022/04/17 05:54:32;;;;;;;;;;;21.10;22.90;;;;;;5139969;27;20374;-59
2022/04/17 05:56:58;;;;;;;;;;;21.20;22.80;;;;;;5146126;27;19930;-57
2022/04/17 05:59:24;;;;;;;;;;;21.00;23.00;;;;;;5142699;27;19923;-54
2022/04/17 06:01:49;;;;;;;;;;;21.20;22.80;;;;;;5148550;27;20374;-62
2022/04/17 06:04:15;;;;;;;;;;;21.00;23.00;;;;;;5142867;27;19972;-52
2022/04/17 06:06:41;;;;;;;;;;;21.10;22.90;;;;;;5141804;27;19951;-58
2022/04/17 06:09:07;;;;;;;;;;;20.80;23.10;;;;;;5148242;27;20347;-57
2022/04/17 06:11:33;;;;;;;;;;;21.10;22.80;;;;;;5124486;27;19999;-60
2022/04/17 06:13:59;;;;;;;;;;;21.10;22.80;;;;;;5138403;27;19927;-59
2022/04/17 06:16:24;;;;;;;;;;;21.20;22.60;;;;;;5147773;27;20017;-61
2022/04/17 06:18:50;;;;;;;;;;;21.00;22.80;;;;;;5142880;27;20382;-55
2022/04/17 06:21:18;;;;;;;;;;;21.00;22.70;;;;;;5146192;27;19923;-58
2022/04/17 06:23:44;;;;;;;;;;;21.20;22.60;;;;;;5145281;27;20368;-58
2022/04/17 06:26:09;;;;;;;;;;;20.90;22.70;;;;;;5142542;27;19967;-62
2022/04/17 06:28:36;;;;;;;;;;;21.10;22.60;;;;;;5147823;27;19927;-60
2022/04/17 06:31:03;;;;;;;;;;;21.20;22.50;;;;;;5139936;27;19923;-62
2022/04/17 06:33:29;;;;;;;;;;;21.00;22.60;;;;;;5140007;27;20433;-58
2022/04/17 06:35:54;;;;;;;;;;;21.10;22.50;;;;;;5147778;27;19927;-56
2022/04/17 06:38:20;;;;;;;;;;;21.10;22.60;;;;;;5142185;27;19934;-59
2022/04/17 06:40:46;;;;;;;;;;;21.10;22.50;;;;;;5142480;27;19930;-56
2022/04/17 06:43:12;;;;;;;;;;;21.10;22.60;;;;;;5147520;27;19923;-59
2022/04/17 06:45:38;;;;;;;;;;;21.00;22.60;;;;;;5142149;27;20298;-60
2022/04/17 06:48:11;;;;;;;;;;;21.10;22.60;;;;;;5129105;27;19923;-53
2022/04/17 06:50:36;;;;;;;;;;;20.90;22.60;;;;;;5137528;27;19930;-56
2022/04/17 06:53:03;;;;;;;;;;;21.10;22.40;;;;;;5141542;27;19926;-55
2022/04/17 06:55:28;;;;;;;;;;;21.10;22.40;;;;;;5147651;27;20413;-60
2022/04/17 06:57:54;;;;;;;;;;;21.20;22.30;;;;;;5142093;27;19922;-60
2022/04/17 07:00:22;;;;;;;;;;;21.10;22.40;;;;;;5141932;27;20105;-55
2022/04/17 07:02:48;;;;;;;;;;;21.10;22.30;;;;;;5147382;27;20400;-53
2022/04/17 07:05:14;;;;;;;;;;;21.10;22.30;;;;;;5141768;27;19972;-57
2022/04/17 07:07:39;;;;;;;;;;;21.30;22.20;;;;;;5145550;27;19945;-57
2022/04/17 07:10:06;;;;;;;;;;;20.90;22.50;;;;;;5138916;27;19975;-60
2022/04/17 07:12:31;;;;;;;;;;;21.20;22.30;;;;;;5142397;27;20067;-59
2022/04/17 07:15:00;;;;;;;;;;;20.80;22.70;;;;;;5147337;27;19927;-62
2022/04/17 07:17:33;;;;;;;;;;;21.10;22.30;;;;;;5141616;27;19931;-63
2022/04/17 07:19:59;;;;;;;;;;;21.10;22.30;;;;;;5141884;27;20389;-57
2022/04/17 07:22:25;;;;;;;;;;;21.10;22.40;;;;;;5147337;27;19927;-63
2022/04/17 07:24:53;;;;;;;;;;;21.10;22.40;;;;;;5141729;27;19924;-56
2022/04/17 07:27:20;;;;;;;;;;;21.10;22.40;;;;;;5137632;27;19949;-61
2022/04/17 07:29:46;;;;;;;;;;;21.10;22.30;;;;;;5146150;27;19984;-60
2022/04/17 07:32:12;;;;;;;;;;;21.10;22.40;;;;;;5141675;27;19923;-54
2022/04/17 07:34:38;;;;;;;;;;;21.00;22.60;;;;;;5146891;27;19972;-58
2022/04/17 07:37:03;;;;;;;;;;;21.20;22.40;;;;;;5141621;27;19923;-60
2022/04/17 07:39:29;;;;;;;;;;;20.90;22.40;;;;;;5141224;27;19923;-61
2022/04/17 07:41:55;;;;;;;;;;;21.20;22.00;;;;;;5146873;27;19923;-60
2022/04/17 07:44:23;;;;;;;;;;;21.10;22.20;;;;;;5139658;27;20025;-61
2022/04/17 07:46:49;;;;;;;;;;;21.10;22.20;;;;;;5137969;27;19923;-62
2022/04/17 07:49:15;;;;;;;;;;;21.10;22.10;;;;;;5146777;27;19931;-62
2022/04/17 07:51:41;;;;;;;;;;;21.10;22.30;;;;;;5123173;27;20030;-60
2022/04/17 07:54:07;;;;;;;;;;;21.20;22.20;;;;;;5146274;27;19939;-57
2022/04/17 07:56:33;;;;;;;;;;;21.10;22.30;;;;;;5142124;27;19923;-52
2022/04/17 07:58:59;;;;;;;;;;;21.00;22.30;;;;;;5141229;27;19929;-62
2022/04/17 08:01:27;;;;;;;;;;;21.20;22.00;;;;;;5128368;27;19927;-52
2022/04/17 08:03:52;;;;;;;;;;;21.00;22.10;;;;;;5136344;27;19927;-61
2022/04/17 08:06:20;;;;;;;;;;;21.10;21.90;;;;;;5121557;27;19923;-60
2022/04/17 08:08:46;;;;;;;;;;;21.10;21.80;;;;;;5146491;27;19923;-53
2022/04/17 08:11:12;;;;;;;;;;;21.10;21.80;;;;;;5122874;27;20018;-54
2022/04/17 08:13:38;;;;;;;;;;;21.00;21.60;;;;;;5142257;27;19939;-53
2022/04/17 08:16:08;;;;;;;;;;;21.30;21.40;;;;;;5146083;27;20351;-63
2022/04/17 08:18:34;;;;;;;;;;;21.10;21.50;;;;;;5140941;27;19933;-58
2022/04/17 08:21:00;;;;;;;;;;;21.10;21.50;;;;;;5144699;27;19923;-58
2022/04/17 08:23:27;;;;;;;;;;;21.00;21.50;;;;;;5137225;27;19973;-59
2022/04/17 08:25:52;;;;;;;;;;;21.20;21.50;;;;;;5140613;27;19927;-53
2022/04/17 08:28:18;;;;;;;;;;;21.00;21.40;;;;;;5146520;27;19927;-60
2022/04/17 08:30:44;;;;;;;;;;;21.30;21.30;;;;;;5144515;27;19923;-60
2022/04/17 08:33:10;;;;;;;;;;;20.90;21.60;;;;;;5144283;27;20131;-58
2022/04/17 08:35:35;;;;;;;;;;;21.20;21.30;;;;;;5149932;27;20333;-58
2022/04/17 08:38:02;;;;;;;;;;;21.00;21.20;;;;;;5144026;27;19927;-61
2022/04/17 08:40:27;;;;;;;;;;;21.20;21.30;;;;;;5145688;27;19924;-62
2022/04/17 08:42:53;;;;;;;;;;;21.10;21.70;;;;;;5143005;27;19939;-58
2022/04/17 08:45:19;;;;;;;;;;;21.20;21.90;;;;;;5144319;27;19973;-63
2022/04/17 08:47:45;;;;;;;;;;;21.20;21.90;;;;;;5149646;27;19927;-59
2022/04/17 08:50:11;;;;;;;;;;;21.10;22.00;;;;;;5108490;27;19930;-55
2022/04/17 08:52:37;;;;;;;;;;;21.00;22.10;;;;;;5144021;27;20264;-53
2022/04/17 08:55:03;;;;;;;;;;;21.20;22.20;;;;;;5131022;27;19923;-57
2022/04/17 08:57:29;;;;;;;;;;;20.90;22.50;;;;;;5124785;27;20351;-59
2022/04/17 08:59:55;;;;;;;;;;;21.20;22.30;;;;;;5144273;27;19927;-59
2022/04/17 09:02:21;;;;;;;;;;;21.00;22.50;;;;;;5144389;27;19976;-61
2022/04/17 09:04:46;;;;;;;;;;;21.20;22.30;;;;;;5144206;27;19923;-57
2022/04/17 09:07:13;;;;;;;;;;;21.10;22.50;;;;;;5149399;27;20351;-61
2022/04/17 09:09:39;;;;;;;;;;;21.10;22.30;;;;;;5143851;27;19962;-56
2022/04/17 09:12:05;;;;;;;;;;;21.20;22.30;;;;;;5144059;27;20183;-63
2022/04/17 09:14:31;;;;;;;;;;;21.20;22.30;;;;;;5149169;27;19923;-57
2022/04/17 09:16:56;;;;;;;;;;;21.10;22.30;;;;;;5140142;27;19934;-63
2022/04/17 09:19:24;;;;;;;;;;;21.20;22.20;;;;;;5144554;27;19927;-59
2022/04/17 09:21:53;;;;;;;;;;;21.10;22.40;;;;;;5147653;27;19926;-62
2022/04/17 09:24:19;;;;;;;;;;;21.20;22.40;;;;;;5143789;27;19945;-61
2022/04/17 09:26:49;;;;;;;;;;;21.10;22.50;;;;;;5149081;27;19935;-64
2022/04/17 09:29:19;;;;;;;;;;;21.10;22.30;;;;;;5124878;27;19927;-58
2022/04/17 09:31:45;;;;;;;;;;;21.10;22.30;;;;;;5143486;27;19929;-64
2022/04/17 09:34:11;;;;;;;;;;;21.20;21.50;;;;;;5148243;27;19927;-59
2022/04/17 09:36:37;;;;;;;;;;;21.10;21.40;;;;;;5139032;27;19934;-61
2022/04/17 09:39:12;;;;;;;;;;;21.20;21.30;;;;;;5124504;27;20167;-60
2022/04/17 09:41:58;;;;;;;;;;;21.10;21.40;;;;;;5148821;27;20021;-62
2022/04/17 09:44:37;;;;;;;;;;;21.10;21.20;;;;;;5142920;27;20386;-60
2022/04/17 09:47:03;;;;;;;;;;;21.10;21.40;;;;;;5143166;27;19938;-61
2022/04/17 09:49:29;;;;;;;;;;;21.20;21.20;;;;;;5148641;27;20021;-59
2022/04/17 09:52:08;;;;;;;;;;;21.00;21.40;;;;;;5124661;27;20353;-60
2022/04/17 09:54:34;;;;;;;;;;;21.10;21.30;;;;;;5138175;27;20736;-59
2022/04/17 09:57:00;;;;;;;;;;;21.10;21.30;;;;;;5129653;27;19969;-61
2022/04/17 09:59:25;;;;;;;;;;;21.10;21.30;;;;;;5143095;27;20038;-58
2022/04/17 10:01:52;;;;;;;;;;;21.20;21.40;;;;;;5129617;27;19927;-58
2022/04/17 10:04:21;;;;;;;;;;;21.10;21.60;;;;;;5143964;27;19923;-64
2022/04/17 10:06:47;;;;;;;;;;;21.20;21.70;;;;;;5143140;27;19929;-59
2022/04/17 10:09:13;;;;;;;;;;;21.00;21.70;;;;;;5148443;27;19948;-53
2022/04/17 10:11:39;;;;;;;;;;;21.20;21.60;;;;;;5139850;27;19927;-60
2022/04/17 10:14:05;;;;;;;;;;;21.10;21.40;;;;;;5140225;27;19931;-57
2022/04/17 10:16:31;;;;;;;;;;;21.10;21.60;;;;;;5148192;27;20026;-63
2022/04/17 10:18:57;;;;;;;;;;;21.20;21.70;;;;;;5142861;27;20022;-58
2022/04/17 10:21:23;;;;;;;;;;;20.90;22.00;;;;;;5124830;27;19931;-58
2022/04/17 10:23:49;;;;;;;;;;;21.30;21.60;;;;;;5147518;27;20378;-58
2022/04/17 10:26:15;;;;;;;;;;;21.00;21.70;;;;;;5142442;27;19923;-62
2022/04/17 10:28:42;;;;;;;;;;;21.30;21.30;;;;;;5147901;27;19927;-61
2022/04/17 10:31:16;;;;;;;;;;;20.90;21.40;;;;;;5118966;27;19923;-58
2022/04/17 10:33:46;;;;;;;;;;;21.30;21.20;;;;;;5142058;27;19923;-55
2022/04/17 10:36:29;;;;;;;;;;;21.20;21.30;;;;;;5129754;27;19923;-57
2022/04/17 10:38:55;;;;;;;;;;;21.10;21.50;;;;;;5124462;27;19923;-59
2022/04/17 10:41:22;;;;;;;;;;;21.00;21.60;;;;;;5142205;27;21394;-60
2022/04/17 10:43:47;;;;;;;;;;;21.10;21.70;;;;;;5147885;27;19927;-59
2022/04/17 10:46:14;;;;;;;;;;;21.00;21.70;;;;;;5123948;27;19934;-63
2022/04/17 10:48:45;;;;;;;;;;;21.20;21.50;;;;;;5139061;27;19929;-60
2022/04/17 10:51:15;;;;;;;;;;;21.20;21.40;;;;;;5145504;27;20253;-60
2022/04/17 10:53:50;;;;;;;;;;;21.10;21.40;;;;;;5142142;27;20030;-60
2022/04/17 10:56:16;;;;;;;;;;;21.10;21.20;;;;;;5142518;27;20298;-60
2022/04/17 10:58:51;;;;;;;;;;;21.10;21.20;;;;;;5129034;27;19934;-64
2022/04/17 11:01:37;;;;;;;;;;;21.10;21.30;;;;;;5142420;27;19922;-61
2022/04/17 11:04:08;;;;;;;;;;;21.00;21.30;;;;;;5142002;27;20407;-64
2022/04/17 11:06:35;;;;;;;;;;;21.20;21.10;;;;;;5126427;27;19927;-56
2022/04/17 11:09:04;;;;;;;;;;;21.10;21.10;;;;;;5139116;27;19954;-64
2022/04/17 11:11:36;;;;;;;;;;;21.30;20.90;;;;;;5147366;27;19923;-63
2022/04/17 11:14:23;;;;;;;;;;;21.10;20.90;;;;;;5144534;27;20021;-61
2022/04/17 11:16:50;;;;;;;;;;;21.20;20.80;;;;;;5142033;27;20013;-62
2022/04/17 11:19:20;;;;;;;;;;;21.30;20.70;;;;;;5146944;27;19923;-59
2022/04/17 11:21:46;;;;;;;;;;;21.20;20.80;;;;;;5143987;27;19923;-58
2022/04/17 11:24:12;;;;;;;;;;;21.00;20.70;;;;;;5141492;27;19983;-58
2022/04/17 11:26:53;;;;;;;;;;;21.20;20.70;;;;;;5141722;27;19927;-62
2022/04/17 11:29:34;;;;;;;;;;;21.30;20.60;;;;;;5141703;27;19987;-58
2022/04/17 11:32:01;;;;;;;;;;;21.00;20.70;;;;;;5141778;27;19930;-62
2022/04/17 11:34:42;;;;;;;;;;;21.30;20.40;;;;;;5147039;27;19926;-63
2022/04/17 11:37:07;;;;;;;;;;;21.20;20.40;;;;;;5141584;27;19923;-54
2022/04/17 11:39:34;;;;;;;;;;;21.00;20.60;;;;;;5141462;27;20429;-64
2022/04/17 11:42:00;;;;;;;;;;;21.30;20.40;;;;;;5146830;27;20446;-62
2022/04/17 11:44:25;;;;;;;;;;;21.10;20.30;;;;;;5137050;27;20881;-61
2022/04/17 11:46:51;;;;;;;;;;;21.20;20.30;;;;;;5120120;27;20206;-62
2022/04/17 11:49:18;;;;;;;;;;;21.30;20.40;;;;;;5146930;27;19927;-56
2022/04/17 11:51:43;;;;;;;;;;;21.10;20.70;;;;;;5141406;27;20419;-64
2022/04/17 11:54:28;;;;;;;;;;;21.10;20.80;;;;;;5145140;27;19923;-61
2022/04/17 11:56:54;;;;;;;;;;;21.20;20.80;;;;;;5146524;27;19923;-62
2022/04/17 11:59:19;;;;;;;;;;;21.30;20.90;;;;;;5141034;27;19924;-62
2022/04/17 12:01:45;;;;;;;;;;;21.10;20.90;;;;;;5125039;27;19932;-59
2022/04/17 12:04:20;;;;;;;;;;;21.10;20.80;;;;;;5140109;27;19922;-61
2022/04/17 12:06:46;;;;;;;;;;;21.30;20.30;;;;;;5144728;27;19930;-60
2022/04/17 12:09:12;;;;;;;;;;;21.10;20.50;;;;;;5150397;27;19930;-58
2022/04/17 12:11:40;;;;;;;;;;;21.00;20.40;;;;;;5145486;27;19934;-60
2022/04/17 12:14:05;;;;;;;;;;;21.20;20.30;;;;;;5144945;27;19937;-62
2022/04/17 12:16:31;;;;;;;;;;;21.20;20.60;;;;;;5150275;27;19931;-62
2022/04/17 12:18:57;;;;;;;;;;;21.20;20.70;;;;;;5144392;27;19980;-61
2022/04/17 12:21:27;;;;;;;;;;;21.20;20.50;;;;;;5140444;27;19981;-57
2022/04/17 12:23:53;;;;;;;;;;;21.20;20.60;;;;;;5149448;27;19923;-62
2022/04/17 12:26:19;;;;;;;;;;;21.20;20.50;;;;;;5144649;27;20343;-60
2022/04/17 12:28:45;;;;;;;;;;;21.20;20.80;;;;;;5131262;27;19934;-62
2022/04/17 12:31:14;;;;;;;;;;;21.30;21.10;;;;;;5124357;27;19992;-61
2022/04/17 12:33:40;;;;;;;;;;;21.30;21.30;;;;;;5125760;27;19922;-62
2022/04/17 12:36:10;;;;;;;;;;;21.20;21.20;;;;;;5149783;27;20013;-60
2022/04/17 12:38:37;;;;;;;;;;;21.10;21.00;;;;;;5141424;27;19923;-60
2022/04/17 12:41:18;;;;;;;;;;;21.20;21.00;;;;;;5141939;27;20211;-63
2022/04/17 12:43:45;;;;;;;;;;;21.20;20.90;;;;;;5149814;27;20005;-58
2022/04/17 12:46:12;;;;;;;;;;;21.10;20.90;;;;;;5144504;27;20374;-59
2022/04/17 12:48:38;;;;;;;;;;;21.20;20.80;;;;;;5125577;27;19953;-59
2022/04/17 12:51:04;;;;;;;;;;;21.30;20.60;;;;;;5149649;27;20021;-63
2022/04/17 12:53:37;;;;;;;;;;;21.30;20.60;;;;;;5143854;27;19934;-61
2022/04/17 12:56:03;;;;;;;;;;;21.30;20.90;;;;;;5148846;27;19927;-58
2022/04/17 12:58:29;;;;;;;;;;;21.20;21.10;;;;;;5139806;27;20350;-60
2022/04/17 13:00:55;;;;;;;;;;;21.30;20.90;;;;;;5125087;27;19930;-61
2022/04/17 13:03:23;;;;;;;;;;;21.30;20.90;;;;;;5149425;27;19938;-62
2022/04/17 13:06:01;;;;;;;;;;;21.30;21.00;;;;;;5144032;27;19945;-59
2022/04/17 13:08:26;;;;;;;;;;;21.30;20.80;;;;;;5139880;27;20021;-61
2022/04/17 13:10:52;;;;;;;;;;;21.20;20.50;;;;;;5149418;27;19930;-62
2022/04/17 13:13:33;;;;;;;;;;;21.20;20.50;;;;;;5143721;27;19927;-62
2022/04/17 13:16:00;;;;;;;;;;;21.30;20.50;;;;;;5136030;27;19927;-61
2022/04/17 13:18:26;;;;;;;;;;;21.20;20.70;;;;;;5147668;27;19927;-59
2022/04/17 13:20:51;;;;;;;;;;;21.30;20.90;;;;;;5143804;27;20474;-61
2022/04/17 13:23:17;;;;;;;;;;;21.30;20.90;;;;;;5144783;27;20429;-55
2022/04/17 13:25:43;;;;;;;;;;;21.20;20.70;;;;;;5148347;27;19927;-62
2022/04/17 13:28:09;;;;;;;;;;;21.20;20.70;;;;;;5143602;27;19939;-61
2022/04/17 13:30:35;;;;;;;;;;;21.20;20.50;;;;;;5148837;27;19927;-62
2022/04/17 13:33:00;;;;;;;;;;;21.20;20.50;;;;;;5143010;27;19923;-59
2022/04/17 13:35:26;;;;;;;;;;;21.20;20.00;;;;;;5138739;27;20056;-61
2022/04/17 13:40:47;;;;;;;;;;;21.20;19.40;;;;;;5125269;27;19930;-63
2022/04/17 13:43:13;;;;;;;;;;;21.30;19.30;;;;;;5143309;27;20386;-61
2022/04/17 13:45:39;;;;;;;;;;;21.30;19.30;;;;;;5148792;27;19927;-63
2022/04/17 13:48:08;;;;;;;;;;;21.30;19.40;;;;;;5143255;27;19923;-62
2022/04/17 13:50:38;;;;;;;;;;;21.30;19.40;;;;;;5124577;27;19934;-63
2022/04/17 13:53:04;;;;;;;;;;;21.20;19.30;;;;;;5143895;27;20003;-60
2022/04/17 13:55:29;;;;;;;;;;;21.20;19.20;;;;;;5142157;27;20010;-62
2022/04/17 13:57:55;;;;;;;;;;;21.30;19.20;;;;;;5148643;27;19967;-64
2022/04/17 14:00:21;;;;;;;;;;;21.20;19.20;;;;;;5143152;27;19946;-62
2022/04/17 14:02:47;;;;;;;;;;;21.30;19.10;;;;;;5142989;27;19969;-60
2022/04/17 14:05:13;;;;;;;;;;;21.40;19.00;;;;;;5148447;27;19923;-60
2022/04/17 14:07:38;;;;;;;;;;;21.40;18.90;;;;;;5143074;27;19927;-62
2022/04/17 14:10:04;;;;;;;;;;;21.40;18.80;;;;;;5141253;27;20338;-59
2022/04/17 14:12:30;;;;;;;;;;;21.30;18.80;;;;;;5144399;27;19929;-61
2022/04/17 14:14:56;;;;;;;;;;;21.30;18.60;;;;;;5142775;27;19923;-64
2022/04/17 14:17:23;;;;;;;;;;;21.30;18.50;;;;;;5146481;27;20022;-59
2022/04/17 14:19:48;;;;;;;;;;;21.30;18.40;;;;;;5144938;27;19936;-58
2022/04/17 14:22:14;;;;;;;;;;;21.30;18.40;;;;;;5142573;27;19930;-61
2022/04/17 14:24:41;;;;;;;;;;;21.30;18.40;;;;;;5147909;27;19923;-61
2022/04/17 14:27:06;;;;;;;;;;;21.30;18.50;;;;;;5141614;27;20394;-61
2022/04/17 14:29:32;;;;;;;;;;;21.30;18.80;;;;;;5138518;27;19951;-61
2022/04/17 14:31:58;;;;;;;;;;;21.30;18.70;;;;;;5146398;27;19923;-61